createdAt,value
2018-08-04T00:00:24.792Z,19.00
2018-08-04T00:02:53.440Z,18.91
2018-08-04T00:05:22.127Z,18.81
2018-08-04T00:07:50.793Z,18.79
2018-08-04T00:10:20.979Z,18.78
2018-08-04T00:12:52.497Z,18.75
2018-08-04T00:15:21.523Z,18.75
2018-08-04T00:17:50.503Z,18.74
2018-08-04T00:20:19.196Z,18.78
2018-08-04T00:22:48.123Z,18.79
2018-08-04T00:25:16.802Z,18.86
2018-08-04T00:27:45.463Z,18.93
2018-08-04T00:30:15.292Z,18.94
2018-08-04T00:32:44.507Z,18.83
2018-08-04T00:35:13.625Z,18.69
2018-08-04T00:37:42.295Z,18.53
2018-08-04T00:40:13.085Z,18.46
2018-08-04T00:42:42.369Z,18.43
2018-08-04T00:45:11.105Z,18.46
2018-08-04T00:47:39.747Z,18.45
2018-08-04T00:50:09.836Z,18.46
2018-08-04T00:52:38.472Z,18.49
2018-08-04T00:55:07.560Z,18.48
2018-08-04T00:57:36.325Z,18.49
2018-08-04T01:00:05.674Z,18.50
2018-08-04T01:02:34.326Z,18.50
2018-08-04T01:05:02.997Z,18.40
2018-08-04T01:07:31.650Z,18.28
2018-08-04T01:10:02.260Z,18.16
2018-08-04T01:12:31.037Z,18.15
2018-08-04T01:15:00.369Z,18.24
2018-08-04T01:17:29.261Z,18.23
2018-08-04T01:20:02.072Z,18.15
2018-08-04T01:22:30.715Z,18.12
2018-08-04T01:24:59.515Z,18.11
2018-08-04T01:27:28.191Z,18.12
2018-08-04T01:29:56.875Z,18.07
2018-08-04T01:32:25.515Z,17.98
2018-08-04T01:34:54.209Z,17.92
2018-08-04T01:37:22.875Z,17.91
2018-08-04T01:39:51.595Z,17.97
2018-08-04T01:42:20.268Z,18.05
2018-08-04T01:44:48.933Z,18.14
2018-08-04T01:47:17.724Z,18.21
2018-08-04T01:49:46.358Z,18.18
2018-08-04T01:52:15.023Z,18.14
2018-08-04T01:54:43.664Z,18.07
2018-08-04T01:57:12.435Z,18.00
2018-08-04T01:59:41.071Z,17.97
2018-08-04T02:02:09.742Z,17.81
2018-08-04T02:04:38.452Z,17.69
2018-08-04T02:07:07.142Z,17.65
2018-08-04T02:09:35.790Z,17.68
2018-08-04T02:12:04.498Z,17.70
2018-08-04T02:14:33.185Z,17.73
2018-08-04T02:17:01.903Z,17.77
2018-08-04T02:19:30.566Z,17.78
2018-08-04T02:21:59.268Z,17.78
2018-08-04T02:24:27.932Z,17.84
2018-08-04T02:26:56.608Z,17.77
2018-08-04T02:29:25.265Z,17.71
2018-08-04T02:31:53.933Z,17.75
2018-08-04T02:34:22.588Z,17.82
2018-08-04T02:36:51.284Z,17.91
2018-08-04T02:39:19.943Z,18.00
2018-08-04T02:41:48.632Z,18.17
2018-08-04T02:44:17.316Z,18.44
2018-08-04T02:46:46.036Z,18.69
2018-08-04T02:49:14.697Z,18.83
2018-08-04T02:51:43.397Z,18.92
2018-08-04T02:54:12.236Z,19.00
2018-08-04T02:56:40.931Z,19.12
2018-08-04T02:59:09.614Z,19.21
2018-08-04T03:01:38.331Z,19.26
2018-08-04T03:04:06.995Z,19.29
2018-08-04T03:06:35.685Z,19.28
2018-08-04T03:09:06.855Z,19.24
2018-08-04T03:11:35.544Z,19.21
2018-08-04T03:14:04.192Z,19.18
2018-08-04T03:16:32.896Z,19.15
2018-08-04T03:19:02.060Z,19.13
2018-08-04T03:21:31.691Z,19.13
2018-08-04T03:24:00.337Z,19.05
2018-08-04T03:26:29.014Z,18.93
2018-08-04T03:28:57.666Z,18.87
2018-08-04T03:31:26.354Z,18.85
2018-08-04T03:33:55.052Z,18.86
2018-08-04T03:36:23.727Z,18.91
2018-08-04T03:38:52.373Z,18.94
2018-08-04T03:41:21.043Z,18.99
2018-08-04T03:43:49.689Z,19.00
2018-08-04T03:46:18.355Z,19.04
2018-08-04T03:48:47.003Z,19.06
2018-08-04T03:51:15.693Z,19.02
2018-08-04T03:53:44.379Z,19.01
2018-08-04T03:56:13.048Z,19.00
2018-08-04T03:58:41.704Z,18.98
2018-08-04T04:01:10.327Z,18.93
2018-08-04T04:03:39.005Z,18.90
2018-08-04T04:06:07.644Z,18.88
2018-08-04T04:08:36.307Z,18.86
2018-08-04T04:11:04.945Z,18.89
2018-08-04T04:13:33.634Z,18.91
2018-08-04T04:16:02.275Z,18.94
2018-08-04T04:18:30.939Z,18.96
2018-08-04T04:20:59.628Z,18.94
2018-08-04T04:23:28.282Z,18.95
2018-08-04T04:25:56.962Z,19.00
2018-08-04T04:28:25.633Z,19.01
2018-08-04T04:30:54.372Z,19.05
2018-08-04T04:33:23.039Z,19.15
2018-08-04T04:35:51.679Z,19.29
2018-08-04T04:38:20.353Z,19.45
2018-08-04T04:40:49.003Z,19.64
2018-08-04T04:43:17.679Z,19.82
2018-08-04T04:45:46.558Z,19.99
2018-08-04T04:48:15.239Z,20.09
2018-08-04T04:50:43.885Z,20.16
2018-08-04T04:53:12.543Z,20.23
2018-08-04T04:55:41.199Z,20.27
2018-08-04T04:58:09.879Z,20.33
2018-08-04T05:00:38.547Z,20.42
2018-08-04T05:03:07.211Z,20.54
2018-08-04T05:05:35.855Z,20.72
2018-08-04T05:08:04.552Z,20.94
2018-08-04T05:10:33.213Z,21.18
2018-08-04T05:13:01.891Z,21.51
2018-08-04T05:15:30.532Z,21.88
2018-08-04T05:17:59.186Z,22.09
2018-08-04T05:20:27.844Z,22.29
2018-08-04T05:22:56.745Z,22.51
2018-08-04T05:25:25.428Z,22.76
2018-08-04T05:27:54.085Z,22.96
2018-08-04T05:30:22.752Z,23.40
2018-08-04T05:32:51.424Z,23.50
2018-08-04T05:35:20.071Z,23.45
2018-08-04T05:37:48.744Z,23.33
2018-08-04T05:40:17.396Z,23.21
2018-08-04T05:42:46.069Z,23.07
2018-08-04T05:45:14.762Z,22.95
2018-08-04T05:47:43.512Z,22.85
2018-08-04T05:50:12.159Z,22.78
2018-08-04T05:52:40.826Z,22.76
2018-08-04T05:55:09.489Z,22.74
2018-08-04T05:57:38.179Z,22.73
2018-08-04T06:00:08.252Z,22.67
2018-08-04T06:02:37.023Z,22.66
2018-08-04T06:05:06.058Z,22.66
2018-08-04T06:07:34.705Z,22.68
2018-08-04T06:10:03.451Z,22.70
2018-08-04T06:12:32.111Z,22.72
2018-08-04T06:15:00.780Z,22.79
2018-08-04T06:17:29.443Z,22.84
2018-08-04T06:19:58.103Z,22.88
2018-08-04T06:22:26.742Z,22.93
2018-08-04T06:24:55.853Z,22.95
2018-08-04T06:27:24.496Z,22.97
2018-08-04T06:29:53.152Z,23.00
2018-08-04T06:32:21.796Z,22.99
2018-08-04T06:34:50.473Z,22.99
2018-08-04T06:37:19.131Z,23.02
2018-08-04T06:39:47.795Z,23.01
2018-08-04T06:42:16.443Z,22.97
2018-08-04T06:44:45.092Z,22.98
2018-08-04T06:47:13.725Z,23.08
2018-08-04T06:49:42.375Z,23.22
2018-08-04T06:52:11.030Z,23.40
2018-08-04T06:54:39.680Z,23.54
2018-08-04T06:57:08.328Z,23.72
2018-08-04T06:59:36.986Z,23.86
2018-08-04T07:02:05.628Z,23.96
2018-08-04T07:04:34.305Z,24.03
2018-08-04T07:07:02.954Z,24.13
2018-08-04T07:09:31.597Z,24.27
2018-08-04T07:12:00.269Z,24.36
2018-08-04T07:14:28.932Z,24.52
2018-08-04T07:16:57.599Z,24.60
2018-08-04T07:19:26.254Z,24.60
2018-08-04T07:21:54.886Z,24.54
2018-08-04T07:24:23.532Z,24.54
2018-08-04T07:26:52.219Z,24.52
2018-08-04T07:29:20.866Z,24.58
2018-08-04T07:31:49.539Z,24.61
2018-08-04T07:34:18.225Z,24.74
2018-08-04T07:36:46.862Z,24.91
2018-08-04T07:39:15.540Z,24.99
2018-08-04T07:41:44.218Z,24.84
2018-08-04T07:44:12.902Z,24.71
2018-08-04T07:46:41.539Z,24.71
2018-08-04T07:49:10.327Z,24.71
2018-08-04T07:51:38.967Z,24.88
2018-08-04T07:54:07.633Z,25.09
2018-08-04T07:56:36.266Z,25.37
2018-08-04T07:59:04.923Z,25.61
2018-08-04T08:01:33.586Z,25.77
2018-08-04T08:04:02.249Z,25.94
2018-08-04T08:06:30.923Z,26.09
2018-08-04T08:08:59.657Z,26.19
2018-08-04T08:11:28.395Z,26.32
2018-08-04T08:13:57.045Z,26.29
2018-08-04T08:16:25.691Z,26.40
2018-08-04T08:18:54.324Z,26.59
2018-08-04T08:21:23.016Z,26.76
2018-08-04T08:23:51.632Z,26.90
2018-08-04T08:26:20.313Z,27.12
2018-08-04T08:28:48.969Z,27.35
2018-08-04T08:31:17.686Z,27.54
2018-08-04T08:33:46.296Z,27.58
2018-08-04T08:36:15.000Z,27.41
2018-08-04T08:38:43.620Z,27.59
2018-08-04T08:41:12.285Z,27.89
2018-08-04T08:43:40.919Z,28.17
2018-08-04T08:46:09.595Z,28.13
2018-08-04T08:48:38.219Z,27.79
2018-08-04T08:51:06.887Z,27.31
2018-08-04T08:53:35.578Z,26.52
2018-08-04T08:56:04.308Z,26.18
2018-08-04T08:58:32.940Z,26.17
2018-08-04T09:01:01.575Z,26.20
2018-08-04T09:03:30.228Z,26.58
2018-08-04T09:05:58.866Z,26.98
2018-08-04T09:08:27.524Z,27.21
2018-08-04T09:10:56.177Z,27.44
2018-08-04T09:13:24.855Z,27.78
2018-08-04T09:15:53.571Z,28.12
2018-08-04T09:18:22.238Z,28.36
2018-08-04T09:20:50.938Z,28.35
2018-08-04T09:23:19.580Z,28.35
2018-08-04T09:25:48.308Z,28.55
2018-08-04T09:28:16.954Z,28.62
2018-08-04T09:30:45.618Z,28.76
2018-08-04T09:33:20.574Z,28.81
2018-08-04T09:35:49.239Z,28.90
2018-08-04T09:38:17.899Z,28.92
2018-08-04T09:40:46.564Z,28.88
2018-08-04T09:43:15.195Z,28.88
2018-08-04T09:45:43.859Z,28.86
2018-08-04T09:48:12.535Z,28.66
2018-08-04T09:50:41.182Z,28.80
2018-08-04T09:53:09.856Z,29.00
2018-08-04T09:55:38.550Z,29.23
2018-08-04T09:58:07.193Z,29.14
2018-08-04T10:00:41.153Z,29.28
2018-08-04T10:03:09.807Z,29.61
2018-08-04T10:05:38.479Z,29.63
2018-08-04T10:08:07.140Z,29.62
2018-08-04T10:10:35.813Z,29.73
2018-08-04T10:13:04.481Z,29.91
2018-08-04T10:15:33.155Z,30.05
2018-08-04T10:18:01.851Z,29.94
2018-08-04T10:20:30.500Z,29.89
2018-08-04T10:22:59.172Z,29.86
2018-08-04T10:25:27.860Z,29.86
2018-08-04T10:27:56.530Z,29.82
2018-08-04T10:30:25.211Z,29.86
2018-08-04T10:32:53.944Z,29.67
2018-08-04T10:35:22.600Z,29.67
2018-08-04T10:37:51.275Z,29.83
2018-08-04T10:40:19.930Z,29.96
2018-08-04T10:42:48.605Z,29.93
2018-08-04T10:45:17.272Z,30.09
2018-08-04T10:47:45.936Z,30.21
2018-08-04T10:50:14.582Z,30.42
2018-08-04T10:52:43.262Z,30.38
2018-08-04T10:55:11.914Z,30.43
2018-08-04T10:57:40.702Z,30.58
2018-08-04T11:00:10.463Z,30.69
2018-08-04T11:02:39.278Z,30.57
2018-08-04T11:05:08.515Z,30.57
2018-08-04T11:07:37.306Z,30.70
2018-08-04T11:10:06.640Z,30.72
2018-08-04T11:12:35.493Z,30.79
2018-08-04T11:15:04.189Z,30.81
2018-08-04T11:17:32.872Z,30.81
2018-08-04T11:20:01.496Z,30.76
2018-08-04T11:22:30.171Z,30.72
2018-08-04T11:24:58.795Z,30.61
2018-08-04T11:27:27.469Z,30.71
2018-08-04T11:29:56.108Z,30.96
2018-08-04T11:32:24.746Z,31.14
2018-08-04T11:34:53.376Z,31.12
2018-08-04T11:37:22.066Z,31.18
2018-08-04T11:39:50.699Z,31.18
2018-08-04T11:42:19.366Z,31.11
2018-08-04T11:44:47.989Z,30.98
2018-08-04T11:47:16.671Z,30.89
2018-08-04T11:49:46.131Z,30.89
2018-08-04T11:52:14.771Z,31.07
2018-08-04T11:54:43.417Z,31.17
2018-08-04T11:57:12.084Z,31.41
2018-08-04T11:59:40.898Z,31.66
2018-08-04T12:02:10.213Z,31.62
2018-08-04T12:04:38.847Z,31.60
2018-08-04T12:07:07.523Z,31.70
2018-08-04T12:09:36.158Z,31.39
2018-08-04T12:12:04.867Z,30.85
2018-08-04T12:14:33.502Z,30.17
2018-08-04T12:17:02.195Z,30.20
2018-08-04T12:19:30.860Z,30.68
2018-08-04T12:21:59.530Z,30.17
2018-08-04T12:24:28.164Z,29.93
2018-08-04T12:26:56.987Z,30.52
2018-08-04T12:29:25.650Z,31.07
2018-08-04T12:31:54.289Z,31.45
2018-08-04T12:34:22.966Z,31.88
2018-08-04T12:36:51.622Z,32.20
2018-08-04T12:39:20.290Z,32.16
2018-08-04T12:41:48.959Z,32.46
2018-08-04T12:44:17.627Z,32.69
2018-08-04T12:46:46.277Z,32.51
2018-08-04T12:49:14.959Z,31.86
2018-08-04T12:51:43.628Z,31.16
2018-08-04T12:54:12.301Z,30.14
2018-08-04T12:56:40.962Z,29.72
2018-08-04T12:59:09.617Z,29.50
2018-08-04T13:01:38.278Z,29.72
2018-08-04T13:04:07.339Z,30.42
2018-08-04T13:06:35.984Z,31.16
2018-08-04T13:09:06.482Z,30.87
2018-08-04T13:11:35.225Z,30.44
2018-08-04T13:14:03.989Z,30.06
2018-08-04T13:16:32.645Z,30.07
2018-08-04T13:19:01.328Z,30.64
2018-08-04T13:21:30.313Z,31.41
2018-08-04T13:23:58.956Z,32.06
2018-08-04T13:26:27.683Z,32.59
2018-08-04T13:28:56.360Z,32.62
2018-08-04T13:31:25.019Z,32.42
2018-08-04T13:33:53.696Z,31.41
2018-08-04T13:36:22.358Z,30.72
2018-08-04T13:38:51.066Z,30.43
2018-08-04T13:41:19.739Z,30.55
2018-08-04T13:43:48.403Z,31.12
2018-08-04T13:46:17.078Z,31.43
2018-08-04T13:48:45.751Z,31.55
2018-08-04T13:51:14.400Z,31.70
2018-08-04T13:53:43.190Z,31.83
2018-08-04T13:56:11.863Z,31.92
2018-08-04T13:58:40.573Z,32.04
2018-08-04T14:01:09.253Z,32.08
2018-08-04T14:03:37.926Z,32.13
2018-08-04T14:06:07.018Z,31.84
2018-08-04T14:08:35.709Z,31.32
2018-08-04T14:11:04.378Z,30.49
2018-08-04T14:13:33.062Z,30.21
2018-08-04T14:16:01.725Z,30.66
2018-08-04T14:18:30.466Z,31.19
2018-08-04T14:20:59.174Z,31.36
2018-08-04T14:23:27.871Z,31.81
2018-08-04T14:25:56.529Z,31.65
2018-08-04T14:28:25.228Z,31.25
2018-08-04T14:30:53.871Z,30.92
2018-08-04T14:33:22.552Z,30.68
2018-08-04T14:35:51.213Z,30.47
2018-08-04T14:38:19.897Z,30.36
2018-08-04T14:40:48.551Z,30.22
2018-08-04T14:43:17.187Z,30.03
2018-08-04T14:45:45.856Z,29.66
2018-08-04T14:48:14.494Z,29.24
2018-08-04T14:50:43.168Z,28.92
2018-08-04T14:53:11.834Z,28.58
2018-08-04T14:55:40.497Z,28.32
2018-08-04T14:58:09.149Z,28.08
2018-08-04T15:00:37.837Z,27.85
2018-08-04T15:03:06.481Z,27.56
2018-08-04T15:05:35.161Z,27.33
2018-08-04T15:08:03.820Z,27.30
2018-08-04T15:10:32.480Z,27.43
2018-08-04T15:13:01.183Z,27.54
2018-08-04T15:15:29.844Z,27.43
2018-08-04T15:17:58.564Z,27.56
2018-08-04T15:20:27.299Z,27.62
2018-08-04T15:22:56.047Z,27.62
2018-08-04T15:25:24.722Z,27.60
2018-08-04T15:27:53.364Z,27.45
2018-08-04T15:30:22.008Z,27.37
2018-08-04T15:32:50.638Z,27.40
2018-08-04T15:35:19.472Z,27.41
2018-08-04T15:37:48.106Z,27.50
2018-08-04T15:40:16.760Z,27.60
2018-08-04T15:42:45.386Z,27.87
2018-08-04T15:45:14.042Z,28.19
2018-08-04T15:47:42.671Z,28.42
2018-08-04T15:50:11.341Z,28.44
2018-08-04T15:52:39.974Z,28.38
2018-08-04T15:55:08.671Z,28.14
2018-08-04T15:57:37.352Z,27.93
2018-08-04T16:00:06.947Z,27.88
2018-08-04T16:02:35.559Z,27.93
2018-08-04T16:05:04.292Z,27.93
2018-08-04T16:07:32.964Z,27.85
2018-08-04T16:10:01.626Z,27.74
2018-08-04T16:12:30.395Z,27.71
2018-08-04T16:14:59.082Z,27.64
2018-08-04T16:17:27.726Z,27.67
2018-08-04T16:19:56.446Z,27.68
2018-08-04T16:22:25.084Z,27.67
2018-08-04T16:24:53.739Z,27.69
2018-08-04T16:27:22.381Z,27.60
2018-08-04T16:29:51.044Z,27.49
2018-08-04T16:32:19.698Z,27.44
2018-08-04T16:34:48.364Z,27.30
2018-08-04T16:37:16.995Z,27.20
2018-08-04T16:39:45.649Z,27.05
2018-08-04T16:42:14.282Z,26.92
2018-08-04T16:44:42.955Z,26.90
2018-08-04T16:47:11.594Z,26.91
2018-08-04T16:49:40.251Z,26.98
2018-08-04T16:52:08.933Z,27.02
2018-08-04T16:54:37.568Z,27.01
2018-08-04T16:57:06.237Z,27.01
2018-08-04T16:59:34.960Z,27.04
2018-08-04T17:02:03.579Z,26.98
2018-08-04T17:04:32.211Z,26.89
2018-08-04T17:07:00.897Z,26.83
2018-08-04T17:09:29.546Z,26.74
2018-08-04T17:11:58.223Z,26.60
2018-08-04T17:14:26.875Z,26.42
2018-08-04T17:16:55.544Z,26.25
2018-08-04T17:19:24.182Z,26.15
2018-08-04T17:21:52.973Z,26.06
2018-08-04T17:24:21.608Z,26.06
2018-08-04T17:26:50.794Z,26.11
2018-08-04T17:29:19.562Z,26.09
2018-08-04T17:31:48.247Z,26.01
2018-08-04T17:34:16.872Z,25.95
2018-08-04T17:36:45.511Z,25.85
2018-08-04T17:39:14.135Z,25.77
2018-08-04T17:41:42.764Z,25.60
2018-08-04T17:44:11.420Z,25.47
2018-08-04T17:46:40.060Z,25.37
2018-08-04T17:49:08.713Z,25.30
2018-08-04T17:51:37.388Z,25.19
2018-08-04T17:54:06.099Z,25.11
2018-08-04T17:56:34.748Z,25.06
2018-08-04T17:59:03.399Z,25.00
2018-08-04T18:01:32.075Z,24.92
2018-08-04T18:04:00.785Z,24.82
2018-08-04T18:06:29.405Z,24.72
2018-08-04T18:08:58.051Z,24.62
2018-08-04T18:11:26.726Z,24.54
2018-08-04T18:13:55.390Z,24.48
2018-08-04T18:16:24.043Z,24.41
2018-08-04T18:18:52.696Z,24.35
2018-08-04T18:21:21.400Z,24.28
2018-08-04T18:23:50.062Z,24.22
2018-08-04T18:26:18.718Z,24.16
2018-08-04T18:28:47.376Z,24.10
2018-08-04T18:31:16.027Z,24.05
2018-08-04T18:33:44.658Z,23.97
2018-08-04T18:36:13.323Z,23.92
2018-08-04T18:38:41.955Z,23.87
2018-08-04T18:41:10.635Z,23.80
2018-08-04T18:43:39.258Z,23.73
2018-08-04T18:46:07.934Z,23.67
2018-08-04T18:48:36.577Z,23.61
2018-08-04T18:51:05.252Z,23.55
2018-08-04T18:53:33.901Z,23.50
2018-08-04T18:56:02.620Z,23.48
2018-08-04T18:58:31.286Z,23.44
2018-08-04T19:00:59.929Z,23.38
2018-08-04T19:03:28.604Z,23.30
2018-08-04T19:05:57.264Z,23.24
2018-08-04T19:08:25.934Z,23.15
2018-08-04T19:10:54.601Z,23.06
2018-08-04T19:13:23.278Z,22.96
2018-08-04T19:15:51.962Z,22.87
2018-08-04T19:18:20.617Z,22.77
2018-08-04T19:20:49.317Z,22.69
2018-08-04T19:23:17.984Z,22.56
2018-08-04T19:25:46.616Z,22.47
2018-08-04T19:28:15.519Z,22.39
2018-08-04T19:30:44.175Z,22.35
2018-08-04T19:33:12.859Z,22.22
2018-08-04T19:35:41.499Z,22.09
2018-08-04T19:38:10.150Z,22.00
2018-08-04T19:40:38.794Z,21.94
2018-08-04T19:43:07.448Z,21.87
2018-08-04T19:45:36.079Z,21.81
2018-08-04T19:48:04.759Z,21.79
2018-08-04T19:50:33.431Z,21.74
2018-08-04T19:53:02.104Z,21.60
2018-08-04T19:55:30.781Z,21.52
2018-08-04T19:57:59.410Z,21.49
2018-08-04T20:00:28.052Z,21.48
2018-08-04T20:02:56.706Z,21.51
2018-08-04T20:07:52.931Z,21.48
2018-08-04T20:10:21.556Z,21.44
2018-08-04T20:12:50.238Z,21.41
2018-08-04T20:15:18.899Z,21.38
2018-08-04T20:17:47.784Z,21.36
2018-08-04T20:20:16.430Z,21.37
2018-08-04T20:22:45.088Z,21.36
2018-08-04T20:25:13.719Z,21.34
2018-08-04T20:27:42.379Z,21.31
2018-08-04T20:30:11.016Z,21.27
2018-08-04T20:32:39.670Z,21.21
2018-08-04T20:35:08.324Z,21.13
2018-08-04T20:37:36.994Z,21.07
2018-08-04T20:40:05.941Z,21.04
2018-08-04T20:42:34.620Z,21.03
2018-08-04T20:45:03.327Z,20.99
2018-08-04T20:47:32.079Z,20.92
2018-08-04T20:50:00.702Z,20.92
2018-08-04T20:52:29.404Z,20.93
2018-08-04T20:54:58.040Z,20.91
2018-08-04T20:57:26.714Z,20.88
2018-08-04T20:59:55.370Z,20.85
2018-08-04T21:02:24.008Z,20.79
2018-08-04T21:04:52.706Z,20.73
2018-08-04T21:07:21.380Z,20.72
2018-08-04T21:09:50.315Z,20.70
2018-08-04T21:12:18.982Z,20.67
2018-08-04T21:14:47.668Z,20.60
2018-08-04T21:17:16.325Z,20.52
2018-08-04T21:19:44.984Z,20.47
2018-08-04T21:22:13.661Z,20.45
2018-08-04T21:24:42.353Z,20.46
2018-08-04T21:27:10.974Z,20.43
2018-08-04T21:29:39.638Z,20.41
2018-08-04T21:32:08.317Z,20.41
2018-08-04T21:34:36.971Z,20.41
2018-08-04T21:37:05.796Z,20.42
2018-08-04T21:39:34.497Z,20.43
2018-08-04T21:42:03.168Z,20.48
2018-08-04T21:44:38.473Z,20.57
2018-08-04T21:47:07.123Z,20.66
2018-08-04T21:49:35.793Z,20.75
2018-08-04T21:52:04.508Z,20.79
2018-08-04T21:54:33.187Z,20.85
2018-08-04T21:57:01.833Z,20.90
2018-08-04T21:59:30.515Z,20.95
2018-08-04T22:01:59.215Z,21.03
2018-08-04T22:04:27.855Z,21.10
2018-08-04T22:08:06.608Z,21.23
2018-08-04T22:10:35.367Z,21.47
2018-08-04T22:13:04.200Z,21.61
2018-08-04T22:15:32.865Z,21.76
2018-08-04T22:18:01.609Z,21.81
2018-08-04T22:20:30.771Z,21.85
2018-08-04T22:22:59.428Z,21.80
2018-08-04T22:25:29.178Z,21.70
2018-08-04T22:27:58.599Z,21.67
2018-08-04T22:30:27.535Z,21.64
2018-08-04T22:32:56.199Z,21.59
2018-08-04T22:35:24.898Z,21.54
2018-08-04T22:37:53.572Z,21.49
2018-08-04T22:40:22.660Z,21.42
2018-08-04T22:42:51.338Z,21.35
2018-08-04T22:46:24.291Z,21.31
2018-08-04T22:48:54.258Z,21.30
2018-08-04T22:51:26.535Z,21.34
2018-08-04T22:53:55.271Z,21.35
2018-08-04T22:56:24.008Z,21.37
2018-08-04T22:58:52.679Z,21.35
2018-08-04T23:01:21.387Z,21.32
2018-08-04T23:03:50.048Z,21.32
2018-08-04T23:06:18.724Z,21.32
2018-08-04T23:08:47.356Z,21.29
2018-08-04T23:11:16.022Z,21.27
2018-08-04T23:13:44.678Z,21.24
2018-08-04T23:16:13.354Z,21.20
2018-08-04T23:18:42.012Z,21.13
2018-08-04T23:21:10.728Z,21.09
2018-08-04T23:23:39.376Z,21.01
2018-08-04T23:26:08.072Z,20.94
2018-08-04T23:28:36.711Z,20.86
2018-08-04T23:31:05.400Z,20.74
2018-08-04T23:33:34.034Z,20.69
2018-08-04T23:36:02.712Z,20.60
2018-08-04T23:38:31.359Z,20.44
2018-08-04T23:41:00.018Z,20.37
2018-08-04T23:43:28.661Z,20.29
2018-08-04T23:45:57.325Z,20.17
2018-08-04T23:48:25.970Z,20.04
2018-08-04T23:50:54.655Z,19.91
2018-08-04T23:53:23.339Z,19.84
2018-08-04T23:55:52.003Z,19.77
2018-08-04T23:58:20.653Z,19.67
